createdAt,value
2019-06-26T00:02:56.816Z,101805.91
2019-06-26T00:05:52.346Z,101811.06
2019-06-26T00:08:43.970Z,101808.34
2019-06-26T00:11:40.336Z,101804.40
2019-06-26T00:14:39.134Z,101808.98
2019-06-26T00:17:33.743Z,101813.67
2019-06-26T00:20:29.531Z,101809.76
2019-06-26T00:23:21.150Z,101811.86
2019-06-26T00:26:36.293Z,101818.58
2019-06-26T00:29:39.608Z,101812.06
2019-06-26T00:32:43.952Z,101816.66
2019-06-26T00:35:45.545Z,101812.39
2019-06-26T00:38:42.102Z,101811.66
2019-06-26T00:41:29.151Z,101812.51
2019-06-26T00:44:21.356Z,101818.02
2019-06-26T00:47:24.500Z,101815.95
2019-06-26T00:50:27.290Z,101822.97
2019-06-26T00:53:19.574Z,101818.02
2019-06-26T00:56:22.238Z,101815.45
2019-06-26T00:59:15.828Z,101821.66
2019-06-26T01:02:10.388Z,101818.84
2019-06-26T01:05:07.376Z,101815.16
2019-06-26T01:08:16.655Z,101819.23
2019-06-26T01:11:40.704Z,101813.10
2019-06-26T01:14:32.280Z,101817.06
2019-06-26T01:17:26.971Z,101815.00
2019-06-26T01:20:19.073Z,101810.94
2019-06-26T01:23:15.958Z,101813.37
2019-06-26T01:26:25.346Z,101824.08
2019-06-26T01:29:20.271Z,101820.43
2019-06-26T01:32:21.401Z,101822.64
2019-06-26T01:35:13.681Z,101823.34
2019-06-26T01:38:13.072Z,101822.48
2019-06-26T01:41:24.350Z,101821.36
2019-06-26T01:44:20.687Z,101820.39
2019-06-26T01:47:10.546Z,101821.74
2019-06-26T01:50:06.345Z,101827.02
2019-06-26T01:53:04.126Z,101834.30
2019-06-26T01:55:59.589Z,101827.52
2019-06-26T01:59:08.330Z,101830.36
2019-06-26T02:02:14.337Z,101826.17
2019-06-26T02:05:13.168Z,101826.90
2019-06-26T02:08:25.007Z,101831.95
2019-06-26T02:11:29.574Z,101828.88
2019-06-26T02:14:30.435Z,101828.38
2019-06-26T02:17:29.989Z,101833.22
2019-06-26T02:20:28.863Z,101833.49
2019-06-26T02:23:30.956Z,101828.96
2019-06-26T02:26:35.563Z,101839.23
2019-06-26T02:29:38.058Z,101843.42
2019-06-26T02:32:39.309Z,101843.80
2019-06-26T02:35:30.988Z,101846.17
2019-06-26T02:38:21.186Z,101849.27
2019-06-26T02:41:19.462Z,101852.51
2019-06-26T02:44:19.483Z,101845.14
2019-06-26T02:47:21.057Z,101853.27
2019-06-26T02:50:34.247Z,101854.16
2019-06-26T02:53:29.513Z,101851.56
2019-06-26T02:56:31.648Z,101855.62
2019-06-26T02:59:25.063Z,101856.28
2019-06-26T03:02:21.661Z,101854.03
2019-06-26T03:05:20.145Z,101862.32
2019-06-26T03:08:29.948Z,101860.11
2019-06-26T03:11:22.994Z,101863.94
2019-06-26T03:14:21.857Z,101874.05
2019-06-26T03:17:14.408Z,101870.09
2019-06-26T03:20:29.540Z,101869.50
2019-06-26T03:23:39.808Z,101869.26
2019-06-26T03:26:33.906Z,101867.92
2019-06-26T03:29:35.020Z,101869.04
2019-06-26T03:32:38.286Z,101871.90
2019-06-26T03:35:40.627Z,101870.16
2019-06-26T03:38:34.864Z,101874.72
2019-06-26T03:41:26.343Z,101881.23
2019-06-26T03:44:24.292Z,101880.88
2019-06-26T03:47:37.780Z,101878.17
2019-06-26T03:50:43.012Z,101884.45
2019-06-26T03:53:48.968Z,101889.88
2019-06-26T03:56:44.787Z,101891.58
2019-06-26T03:59:54.454Z,101895.80
2019-06-26T04:02:40.235Z,101894.80
2019-06-26T04:05:57.477Z,101896.78
2019-06-26T04:09:01.457Z,101896.62
2019-06-26T04:12:06.692Z,101903.89
2019-06-26T04:15:14.498Z,101902.62
2019-06-26T04:18:13.072Z,101906.31
2019-06-26T04:21:17.706Z,101912.07
2019-06-26T04:24:16.895Z,101912.17
2019-06-26T04:27:05.182Z,101925.09
2019-06-26T04:29:54.701Z,101923.59
2019-06-26T04:32:46.887Z,101923.33
2019-06-26T04:35:49.545Z,101933.47
2019-06-26T04:39:23.122Z,101932.20
2019-06-26T04:42:19.700Z,101939.19
2019-06-26T04:45:13.145Z,101929.50
2019-06-26T04:48:11.659Z,101932.55
2019-06-26T04:51:10.202Z,101933.95
2019-06-26T04:54:04.647Z,101938.41
2019-06-26T04:56:58.224Z,101925.51
2019-06-26T04:59:54.445Z,101942.46
2019-06-26T05:02:59.427Z,101939.12
2019-06-26T05:05:53.309Z,101939.66
2019-06-26T05:08:48.993Z,101946.15
2019-06-26T05:11:53.898Z,101954.20
2019-06-26T05:15:09.311Z,101958.84
2019-06-26T05:18:32.692Z,101952.45
2019-06-26T05:21:26.148Z,101954.23
2019-06-26T05:24:21.650Z,101951.91
2019-06-26T05:27:12.748Z,101955.48
2019-06-26T05:30:20.318Z,101962.66
2019-06-26T05:33:25.259Z,101966.91
2019-06-26T05:36:19.472Z,101963.61
2019-06-26T05:39:29.388Z,101961.49
2019-06-26T05:42:34.545Z,101974.11
2019-06-26T05:45:37.613Z,101977.82
2019-06-26T05:48:44.090Z,101842.55
2019-06-26T05:51:51.407Z,101978.91
2019-06-26T05:54:47.407Z,101974.33
2019-06-26T06:00:48.065Z,101981.89
2019-06-26T06:03:49.871Z,101989.77
2019-06-26T06:06:49.557Z,102000.52
2019-06-26T06:09:39.647Z,102000.45
2019-06-26T06:12:34.006Z,102006.58
2019-06-26T06:15:28.741Z,102009.77
2019-06-26T06:18:28.140Z,102014.02
2019-06-26T06:21:52.250Z,102021.42
2019-06-26T06:24:46.544Z,102018.70
2019-06-26T06:27:39.272Z,102036.67
2019-06-26T06:30:34.039Z,102034.74
2019-06-26T06:33:37.287Z,102036.48
2019-06-26T06:36:35.525Z,102031.91
2019-06-26T06:39:26.575Z,102035.38
2019-06-26T06:42:43.981Z,102039.08
2019-06-26T06:45:33.456Z,102034.84
2019-06-26T06:48:38.798Z,102032.67
2019-06-26T06:51:43.371Z,102046.55
2019-06-26T06:54:46.167Z,102046.64
2019-06-26T06:57:37.914Z,102050.61
2019-06-26T07:00:29.270Z,102047.98
2019-06-26T07:03:30.132Z,102057.33
2019-06-26T07:06:38.886Z,102058.18
2019-06-26T07:09:40.654Z,102061.96
2019-06-26T07:12:42.261Z,102061.88
2019-06-26T07:19:11.026Z,102079.51
2019-06-26T07:22:16.325Z,102078.40
2019-06-26T07:25:16.444Z,102087.16
2019-06-26T07:28:07.593Z,102096.84
2019-06-26T07:30:57.604Z,102094.41
2019-06-26T07:33:55.394Z,102092.64
2019-06-26T07:36:49.396Z,102092.33
2019-06-26T07:39:46.503Z,102087.19
2019-06-26T07:42:36.792Z,102088.91
2019-06-26T07:45:27.464Z,102086.34
2019-06-26T07:48:19.964Z,102092.86
2019-06-26T07:51:07.872Z,102093.58
2019-06-26T07:54:05.479Z,102097.25
2019-06-26T07:57:00.813Z,102098.48
2019-06-26T07:59:59.700Z,102102.13
2019-06-26T08:03:04.077Z,102099.86
2019-06-26T08:05:56.462Z,102114.18
2019-06-26T08:08:47.908Z,102105.03
2019-06-26T08:11:37.625Z,102107.05
2019-06-26T08:14:27.734Z,102106.92
2019-06-26T08:17:23.944Z,102073.59
2019-06-26T08:20:30.673Z,102111.80
2019-06-26T08:23:33.835Z,102117.69
2019-06-26T08:26:25.185Z,102119.72
2019-06-26T08:29:19.113Z,102118.48
2019-06-26T08:32:27.709Z,102114.73
2019-06-26T08:35:34.621Z,102127.31
2019-06-26T08:38:35.533Z,102118.09
2019-06-26T08:41:30.945Z,102113.00
2019-06-26T08:44:30.270Z,102130.29
2019-06-26T08:47:24.432Z,102121.25
2019-06-26T08:50:16.800Z,102125.33
2019-06-26T08:53:09.783Z,102134.48
2019-06-26T08:56:09.925Z,102132.98
2019-06-26T08:59:08.075Z,102129.41
2019-06-26T09:02:07.112Z,102142.61
2019-06-26T09:05:02.524Z,102144.16
2019-06-26T09:07:53.459Z,102141.07
2019-06-26T09:10:56.658Z,102154.97
2019-06-26T09:13:48.048Z,102138.69
2019-06-26T09:16:45.811Z,102144.67
2019-06-26T09:19:39.379Z,102145.88
2019-06-26T09:22:29.700Z,102159.42
2019-06-26T09:25:27.938Z,102154.25
2019-06-26T09:28:35.879Z,102156.80
2019-06-26T09:31:30.968Z,102153.19
2019-06-26T09:34:36.912Z,102155.61
2019-06-26T09:37:39.408Z,102154.52
2019-06-26T09:40:44.418Z,102160.67
2019-06-26T09:43:36.882Z,102159.22
2019-06-26T09:46:45.237Z,102166.64
2019-06-26T09:49:34.904Z,102171.12
2019-06-26T09:52:28.115Z,102159.05
2019-06-26T09:55:35.569Z,102156.54
2019-06-26T09:58:32.570Z,102157.16
2019-06-26T10:01:40.610Z,102151.83
2019-06-26T10:04:40.747Z,102163.45
2019-06-26T10:07:51.458Z,102172.10
2019-06-26T10:10:46.924Z,102160.17
2019-06-26T10:13:52.738Z,102165.95
2019-06-26T10:16:50.402Z,102178.25
2019-06-26T10:19:45.257Z,102178.98
2019-06-26T10:22:47.708Z,102182.76
2019-06-26T10:25:45.823Z,102187.41
2019-06-26T10:28:54.389Z,102179.58
2019-06-26T10:31:55.652Z,102172.55
2019-06-26T10:35:09.335Z,102178.26
2019-06-26T10:38:06.278Z,102175.26
2019-06-26T10:41:04.911Z,102170.45
2019-06-26T10:44:04.547Z,102177.27
2019-06-26T10:47:01.652Z,102181.12
2019-06-26T10:50:07.770Z,102000.27
2019-06-26T10:52:59.634Z,102191.06
2019-06-26T10:55:56.760Z,102189.58
2019-06-26T10:58:54.452Z,102177.14
2019-06-26T11:01:55.333Z,102188.61
2019-06-26T11:04:49.866Z,102178.50
2019-06-26T11:07:55.618Z,102173.06
2019-06-26T11:10:58.220Z,102181.89
2019-06-26T11:14:11.078Z,102171.36
2019-06-26T11:17:12.389Z,102164.77
2019-06-26T11:20:04.109Z,102159.40
2019-06-26T11:22:55.519Z,102162.98
2019-06-26T11:25:48.267Z,102170.66
2019-06-26T11:28:45.605Z,102163.97
2019-06-26T11:31:36.940Z,102157.49
2019-06-26T11:34:34.033Z,102158.13
2019-06-26T11:37:25.853Z,102150.12
2019-06-26T11:40:21.174Z,102166.66
2019-06-26T11:43:14.182Z,102160.55
2019-06-26T11:46:24.480Z,102159.28
2019-06-26T11:49:26.466Z,102154.50
2019-06-26T11:52:44.274Z,102141.23
2019-06-26T11:55:55.096Z,102144.08
2019-06-26T11:58:49.199Z,102137.78
2019-06-26T12:02:02.858Z,102145.12
2019-06-26T12:05:11.604Z,102145.46
2019-06-26T12:08:18.304Z,102143.77
2019-06-26T12:11:18.465Z,102132.70
2019-06-26T12:14:28.504Z,102129.25
2019-06-26T12:17:30.102Z,102137.91
2019-06-26T12:20:27.154Z,102151.44
2019-06-26T12:23:30.262Z,102150.36
2019-06-26T12:26:30.449Z,102153.93
2019-06-26T12:29:28.243Z,102142.38
2019-06-26T12:32:23.539Z,102163.09
2019-06-26T12:35:19.306Z,102150.69
2019-06-26T12:38:36.100Z,102160.34
2019-06-26T12:41:37.439Z,102158.14
2019-06-26T12:44:39.396Z,102146.34
2019-06-26T12:47:39.615Z,102154.30
2019-06-26T12:50:36.032Z,102145.84
2019-06-26T12:53:50.232Z,102156.80
2019-06-26T12:56:48.462Z,102153.50
2019-06-26T12:59:57.343Z,102138.80
2019-06-26T13:02:31.556Z,102147.58
2019-06-26T13:05:35.704Z,102139.63
2019-06-26T13:08:33.678Z,102149.72
2019-06-26T13:11:35.439Z,102154.77
2019-06-26T13:14:45.587Z,102142.02
2019-06-26T13:17:45.543Z,102137.44
2019-06-26T13:20:59.468Z,102138.16
2019-06-26T13:24:07.162Z,102134.46
2019-06-26T13:26:56.455Z,102137.91
2019-06-26T13:29:58.565Z,102133.51
2019-06-26T13:32:54.500Z,102138.11
2019-06-26T13:35:52.511Z,102136.73
2019-06-26T13:38:46.169Z,102125.91
2019-06-26T13:41:47.603Z,102138.72
2019-06-26T13:44:43.980Z,102139.42
2019-06-26T13:47:39.594Z,102136.28
2019-06-26T13:50:43.257Z,102137.14
2019-06-26T13:53:36.051Z,102135.91
2019-06-26T13:56:37.183Z,102142.33
2019-06-26T13:59:30.970Z,102149.38
2019-06-26T14:02:41.060Z,102135.05
2019-06-26T14:05:30.219Z,102141.05
2019-06-26T14:08:26.686Z,102136.66
2019-06-26T14:11:34.597Z,102135.19
2019-06-26T14:14:20.507Z,102139.95
2019-06-26T14:17:16.668Z,102129.49
2019-06-26T14:20:20.803Z,102136.59
2019-06-26T14:23:13.750Z,102130.08
2019-06-26T14:26:17.257Z,102135.22
2019-06-26T14:29:21.256Z,102159.97
2019-06-26T14:32:31.298Z,102136.73
2019-06-26T14:35:37.059Z,102143.50
2019-06-26T14:38:24.735Z,102155.47
2019-06-26T14:41:26.866Z,102146.03
2019-06-26T14:44:33.430Z,102146.58
2019-06-26T14:47:41.084Z,102151.86
2019-06-26T14:50:44.914Z,102147.05
2019-06-26T14:53:46.484Z,102154.70
2019-06-26T14:56:42.379Z,102156.20
2019-06-26T14:59:46.693Z,102155.16
2019-06-26T15:02:47.468Z,102152.61
2019-06-26T15:05:54.249Z,102170.90
2019-06-26T15:08:49.927Z,102162.11
2019-06-26T15:11:41.760Z,102158.48
2019-06-26T15:14:36.809Z,102171.83
2019-06-26T15:17:29.779Z,102170.58
2019-06-26T15:20:24.694Z,102173.86
2019-06-26T15:23:16.273Z,102174.38
2019-06-26T15:26:12.633Z,102180.34
2019-06-26T15:29:18.747Z,102176.65
2019-06-26T15:32:09.613Z,102166.42
2019-06-26T15:35:08.096Z,102178.20
2019-06-26T15:38:06.880Z,102171.61
2019-06-26T15:41:11.119Z,102171.20
2019-06-26T15:44:11.969Z,102186.53
2019-06-26T15:47:14.633Z,102182.25
2019-06-26T15:50:00.290Z,102194.19
2019-06-26T15:53:05.157Z,102184.27
2019-06-26T15:56:03.133Z,102183.52
2019-06-26T15:58:57.499Z,102187.97
2019-06-26T16:01:50.087Z,102183.30
2019-06-26T16:05:02.762Z,102189.30
2019-06-26T16:08:18.763Z,102190.83
2019-06-26T16:11:17.007Z,102196.13
2019-06-26T16:14:19.470Z,102191.80
2019-06-26T16:17:51.078Z,102200.91
2019-06-26T16:24:04.205Z,102209.53
2019-06-26T16:27:14.719Z,102210.15
2019-06-26T16:30:09.428Z,102219.81
2019-06-26T16:33:09.126Z,102213.48
2019-06-26T16:36:11.588Z,102211.93
2019-06-26T16:39:10.584Z,102212.83
2019-06-26T16:42:12.674Z,102220.53
2019-06-26T16:45:09.518Z,102228.73
2019-06-26T16:47:57.501Z,102226.85
2019-06-26T16:50:49.327Z,102214.73
2019-06-26T16:53:39.945Z,102231.66
2019-06-26T16:56:40.143Z,102227.52
2019-06-26T16:59:47.524Z,102229.28
2019-06-26T17:02:35.918Z,102232.00
2019-06-26T17:05:35.022Z,102234.89
2019-06-26T17:08:34.712Z,102241.08
2019-06-26T17:11:57.312Z,102248.80
2019-06-26T17:15:08.708Z,102251.99
2019-06-26T17:18:10.668Z,102252.48
2019-06-26T17:21:16.189Z,102255.38
2019-06-26T17:24:02.970Z,102257.69
2019-06-26T17:27:06.914Z,102254.17
2019-06-26T17:30:02.089Z,102268.82
2019-06-26T17:33:14.871Z,102277.33
2019-06-26T17:36:07.913Z,102276.34
2019-06-26T17:39:08.003Z,102274.37
2019-06-26T17:42:02.222Z,102282.67
2019-06-26T17:44:53.646Z,102281.47
2019-06-26T17:47:48.043Z,102280.34
2019-06-26T17:50:40.356Z,102277.05
2019-06-26T17:53:42.158Z,102287.78
2019-06-26T17:56:39.077Z,102293.58
2019-06-26T17:59:51.932Z,102301.67
2019-06-26T18:02:45.297Z,102301.50
2019-06-26T18:05:38.584Z,102305.23
2019-06-26T18:08:46.230Z,102297.30
2019-06-26T18:12:01.097Z,102298.84
2019-06-26T18:15:05.352Z,102306.03
2019-06-26T18:18:08.541Z,102309.41
2019-06-26T18:21:00.736Z,102319.08
2019-06-26T18:24:00.384Z,102320.91
2019-06-26T18:26:56.819Z,102327.80
2019-06-26T18:30:01.122Z,102321.63
2019-06-26T18:32:54.364Z,102321.22
2019-06-26T18:35:47.675Z,102321.29
2019-06-26T18:38:40.975Z,102329.44
2019-06-26T18:41:38.889Z,102338.20
2019-06-26T18:44:25.431Z,102339.66
2019-06-26T18:47:26.250Z,102340.26
2019-06-26T18:50:22.008Z,102339.57
2019-06-26T18:53:22.759Z,102342.48
2019-06-26T18:56:16.517Z,102356.92
2019-06-26T18:59:17.238Z,102364.72
2019-06-26T19:02:14.578Z,102372.47
2019-06-26T19:07:43.404Z,102390.20
2019-06-26T19:10:35.956Z,102393.47
2019-06-26T19:13:35.329Z,102401.80
2019-06-26T19:16:31.515Z,102409.50
2019-06-26T19:19:22.717Z,102406.66
2019-06-26T19:22:21.980Z,102416.81
2019-06-26T19:25:23.289Z,102421.58
2019-06-26T19:28:22.942Z,102423.16
2019-06-26T19:31:07.566Z,102417.22
2019-06-26T19:34:10.809Z,102426.95
2019-06-26T19:37:12.764Z,102433.12
2019-06-26T19:40:16.211Z,102429.80
2019-06-26T19:43:16.367Z,102433.31
2019-06-26T19:46:03.871Z,102264.69
2019-06-26T19:48:57.703Z,102449.42
2019-06-26T19:51:59.588Z,102449.80
2019-06-26T19:54:45.411Z,102465.02
2019-06-26T19:57:38.550Z,102464.06
2019-06-26T20:00:33.046Z,102463.58
2019-06-26T20:03:28.587Z,102472.00
2019-06-26T20:06:20.181Z,102480.47
2019-06-26T20:09:26.875Z,102477.36
2019-06-26T20:12:19.477Z,102482.68
2019-06-26T20:15:14.300Z,102485.52
2019-06-26T20:18:08.369Z,102486.84
2019-06-26T20:21:03.664Z,102491.86
2019-06-26T20:24:06.107Z,102443.93
2019-06-26T20:26:58.563Z,102492.41
2019-06-26T20:30:11.934Z,102491.25
2019-06-26T20:33:10.466Z,102488.63
2019-06-26T20:36:09.060Z,102494.27
2019-06-26T20:39:03.170Z,102493.37
2019-06-26T20:41:59.014Z,102489.98
2019-06-26T20:44:56.359Z,102490.57
2019-06-26T20:47:55.328Z,102499.23
2019-06-26T20:50:51.944Z,102506.43
2019-06-26T20:53:45.087Z,102503.42
2019-06-26T20:56:47.991Z,102513.03
2019-06-26T20:59:41.688Z,102514.16
2019-06-26T21:02:40.530Z,102510.48
2019-06-26T21:06:04.422Z,102520.30
2019-06-26T21:08:49.922Z,102527.83
2019-06-26T21:12:00.146Z,102539.13
2019-06-26T21:15:03.914Z,102540.62
2019-06-26T21:18:22.520Z,102536.45
2019-06-26T21:21:19.898Z,102551.13
2019-06-26T21:24:25.460Z,102545.25
2019-06-26T21:27:27.148Z,102550.05
2019-06-26T21:30:33.290Z,102551.12
2019-06-26T21:33:26.600Z,102554.23
2019-06-26T21:36:37.610Z,102560.38
2019-06-26T21:39:37.376Z,102559.23
2019-06-26T21:42:43.975Z,102563.55
2019-06-26T21:45:54.508Z,102569.58
2019-06-26T21:48:50.803Z,102560.86
2019-06-26T21:52:02.650Z,102561.09
2019-06-26T21:55:02.920Z,102562.28
2019-06-26T21:57:57.166Z,102565.58
2019-06-26T22:00:52.692Z,102553.58
2019-06-26T22:03:48.410Z,102555.45
2019-06-26T22:06:38.522Z,102558.27
2019-06-26T22:09:39.069Z,102559.50
2019-06-26T22:12:31.599Z,102556.61
2019-06-26T22:15:45.556Z,102557.30
2019-06-26T22:18:54.388Z,102568.23
2019-06-26T22:21:56.536Z,102559.16
2019-06-26T22:24:55.480Z,102560.55
2019-06-26T22:27:56.824Z,102554.14
2019-06-26T22:30:47.754Z,102555.22
2019-06-26T22:33:42.137Z,102567.88
2019-06-26T22:36:51.068Z,102570.18
2019-06-26T22:39:50.847Z,102559.07
2019-06-26T22:42:53.068Z,102565.13
2019-06-26T22:45:55.479Z,102572.73
2019-06-26T22:49:05.260Z,102560.55
2019-06-26T22:52:04.846Z,102572.33
2019-06-26T22:55:06.042Z,102578.59
2019-06-26T22:58:09.648Z,102569.66
2019-06-26T23:01:23.974Z,102570.13
2019-06-26T23:04:12.018Z,102572.20
2019-06-26T23:07:17.879Z,102567.02
2019-06-26T23:10:12.235Z,102563.20
2019-06-26T23:13:03.776Z,102564.24
2019-06-26T23:16:03.765Z,102575.18
2019-06-26T23:19:21.926Z,102574.58
2019-06-26T23:22:24.608Z,102578.43
2019-06-26T23:25:17.769Z,102578.08
2019-06-26T23:28:15.581Z,102584.38
2019-06-26T23:31:20.557Z,102578.78
2019-06-26T23:34:23.702Z,102586.29
2019-06-26T23:37:28.991Z,102585.34
2019-06-26T23:40:27.042Z,102579.00
2019-06-26T23:43:18.356Z,102582.32
2019-06-26T23:46:09.027Z,102576.92
2019-06-26T23:49:18.781Z,102580.94
2019-06-26T23:52:16.757Z,102578.26
2019-06-26T23:55:06.878Z,102580.52
2019-06-26T23:58:11.208Z,102583.56
